sensor_id;sensor_type;location;lat;lon;timestamp;pressure;altitude;pressure_sealevel;temperature;humidity
48790;BME280;41718;51.980;5.734;2023-05-10T00:03:35;100276.63;;;11.81;100.00
48790;BME280;41718;51.980;5.734;2023-05-10T00:08:46;100271.44;;;11.81;100.00
48790;BME280;41718;51.980;5.734;2023-05-10T00:13:51;100260.16;;;11.81;100.00
48790;BME280;41718;51.980;5.734;2023-05-10T00:18:53;100261.94;;;11.82;100.00
48790;BME280;41718;51.980;5.734;2023-05-10T00:23:57;100273.16;;;11.84;100.00
48790;BME280;41718;51.980;5.734;2023-05-10T00:28:59;100272.28;;;11.80;100.00
48790;BME280;41718;51.980;5.734;2023-05-10T00:34:01;100263.59;;;11.78;100.00
48790;BME280;41718;51.980;5.734;2023-05-10T00:39:02;100262.78;;;11.82;100.00
48790;BME280;41718;51.980;5.734;2023-05-10T00:44:04;100261.91;;;11.80;100.00
48790;BME280;41718;51.980;5.734;2023-05-10T00:49:06;100256.69;;;11.77;100.00
48790;BME280;41718;51.980;5.734;2023-05-10T00:54:10;100235.97;;;11.80;100.00
48790;BME280;41718;51.980;5.734;2023-05-10T00:59:12;100228.22;;;11.80;100.00
48790;BME280;41718;51.980;5.734;2023-05-10T01:04:14;100223.91;;;11.85;100.00
48790;BME280;41718;51.980;5.734;2023-05-10T01:09:16;100216.97;;;11.90;100.00
48790;BME280;41718;51.980;5.734;2023-05-10T01:14:18;100218.72;;;11.90;100.00
48790;BME280;41718;51.980;5.734;2023-05-10T01:19:26;100215.25;;;11.94;100.00
48790;BME280;41718;51.980;5.734;2023-05-10T01:24:49;100204.91;;;11.97;100.00
48790;BME280;41718;51.980;5.734;2023-05-10T01:30:05;100165.16;;;12.03;100.00
48790;BME280;41718;51.980;5.734;2023-05-10T01:40:26;100144.41;;;12.00;100.00
48790;BME280;41718;51.980;5.734;2023-05-10T01:45:42;100134.91;;;11.99;100.00
48790;BME280;41718;51.980;5.734;2023-05-10T01:50:48;100134.03;;;12.03;100.00
48790;BME280;41718;51.980;5.734;2023-05-10T01:55:53;100141.78;;;12.01;100.00
48790;BME280;41718;51.980;5.734;2023-05-10T02:00:58;100140.97;;;11.98;100.00
48790;BME280;41718;51.980;5.734;2023-05-10T02:06:03;100140.94;;;11.99;100.00
48790;BME280;41718;51.980;5.734;2023-05-10T02:11:04;100153.91;;;11.99;100.00
48790;BME280;41718;51.980;5.734;2023-05-10T02:16:07;100162.53;;;12.00;100.00
48790;BME280;41718;51.980;5.734;2023-05-10T02:21:09;100161.69;;;11.98;100.00
48790;BME280;41718;51.980;5.734;2023-05-10T02:26:12;100170.31;;;11.95;100.00
48790;BME280;41718;51.980;5.734;2023-05-10T02:31:15;100183.28;;;11.89;100.00
48790;BME280;41718;51.980;5.734;2023-05-10T02:36:17;100191.94;;;11.88;100.00
48790;BME280;41718;51.980;5.734;2023-05-10T02:41:22;100191.94;;;11.89;100.00
48790;BME280;41718;51.980;5.734;2023-05-10T02:46:24;100186.75;;;11.88;100.00
48790;BME280;41718;51.980;5.734;2023-05-10T02:51:29;100191.94;;;11.88;100.00
48790;BME280;41718;51.980;5.734;2023-05-10T02:56:34;100194.53;;;11.80;100.00
48790;BME280;41718;51.980;5.734;2023-05-10T03:01:37;100203.13;;;11.79;100.00
48790;BME280;41718;51.980;5.734;2023-05-10T03:06:39;100205.72;;;11.73;100.00
48790;BME280;41718;51.980;5.734;2023-05-10T03:11:59;100208.34;;;11.64;100.00
48790;BME280;41718;51.980;5.734;2023-05-10T03:17:10;100204.00;;;11.57;100.00
48790;BME280;41718;51.980;5.734;2023-05-10T03:22:13;100219.56;;;11.54;100.00
48790;BME280;41718;51.980;5.734;2023-05-10T03:27:18;100218.72;;;11.58;100.00
48790;BME280;41718;51.980;5.734;2023-05-10T03:32:22;100228.19;;;11.53;100.00
48790;BME280;41718;51.980;5.734;2023-05-10T03:37:24;100223.88;;;11.55;100.00
48790;BME280;41718;51.980;5.734;2023-05-10T03:42:25;100225.59;;;11.56;100.00
48790;BME280;41718;51.980;5.734;2023-05-10T03:47:26;100238.53;;;11.51;100.00
48790;BME280;41718;51.980;5.734;2023-05-10T03:52:28;100241.16;;;11.47;100.00
48790;BME280;41718;51.980;5.734;2023-05-10T03:57:30;100244.59;;;11.52;100.00
48790;BME280;41718;51.980;5.734;2023-05-10T04:02:31;100250.66;;;11.46;100.00
48790;BME280;41718;51.980;5.734;2023-05-10T04:07:33;100253.22;;;11.45;100.00
48790;BME280;41718;51.980;5.734;2023-05-10T04:12:34;100261.88;;;11.47;100.00
48790;BME280;41718;51.980;5.734;2023-05-10T04:17:36;100266.16;;;11.51;100.00
48790;BME280;41718;51.980;5.734;2023-05-10T04:22:37;100267.91;;;11.47;100.00
48790;BME280;41718;51.980;5.734;2023-05-10T04:27:39;100260.13;;;11.41;100.00
48790;BME280;41718;51.980;5.734;2023-05-10T04:32:40;100269.63;;;11.42;100.00
48790;BME280;41718;51.980;5.734;2023-05-10T04:37:42;100273.94;;;11.48;100.00
48790;BME280;41718;51.980;5.734;2023-05-10T04:42:44;100274.81;;;11.50;100.00
48790;BME280;41718;51.980;5.734;2023-05-10T04:47:45;100273.09;;;11.53;100.00
48790;BME280;41718;51.980;5.734;2023-05-10T04:52:47;100273.09;;;11.53;100.00
48790;BME280;41718;51.980;5.734;2023-05-10T04:57:48;100279.13;;;11.51;100.00
48790;BME280;41718;51.980;5.734;2023-05-10T05:02:50;100287.78;;;11.53;100.00
48790;BME280;41718;51.980;5.734;2023-05-10T05:07:51;100289.50;;;11.48;100.00
48790;BME280;41718;51.980;5.734;2023-05-10T05:12:53;100291.22;;;11.61;100.00
48790;BME280;41718;51.980;5.734;2023-05-10T05:17:54;100287.78;;;11.60;100.00
48790;BME280;41718;51.980;5.734;2023-05-10T05:22:56;100295.59;;;11.70;100.00
48790;BME280;41718;51.980;5.734;2023-05-10T05:27:57;100298.16;;;11.63;100.00
48790;BME280;41718;51.980;5.734;2023-05-10T05:32:59;100305.06;;;11.67;100.00
48790;BME280;41718;51.980;5.734;2023-05-10T05:38:00;100300.75;;;11.68;100.00
48790;BME280;41718;51.980;5.734;2023-05-10T05:43:02;100302.50;;;11.75;100.00
48790;BME280;41718;51.980;5.734;2023-05-10T05:48:04;100305.09;;;11.69;100.00
48790;BME280;41718;51.980;5.734;2023-05-10T05:53:05;100312.84;;;11.66;100.00
48790;BME280;41718;51.980;5.734;2023-05-10T05:58:07;100322.34;;;11.73;100.00
48790;BME280;41718;51.980;5.734;2023-05-10T06:03:08;100326.66;;;11.71;100.00
48790;BME280;41718;51.980;5.734;2023-05-10T06:08:10;100338.78;;;11.77;100.00
48790;BME280;41718;51.980;5.734;2023-05-10T06:13:12;100334.47;;;11.80;100.00
48790;BME280;41718;51.980;5.734;2023-05-10T06:18:13;100343.94;;;11.77;100.00
48790;BME280;41718;51.980;5.734;2023-05-10T06:23:15;100346.53;;;11.77;100.00
48790;BME280;41718;51.980;5.734;2023-05-10T06:28:16;100356.06;;;11.81;100.00
48790;BME280;41718;51.980;5.734;2023-05-10T06:33:18;100360.41;;;11.91;100.00
48790;BME280;41718;51.980;5.734;2023-05-10T06:38:19;100362.13;;;11.90;100.00
48790;BME280;41718;51.980;5.734;2023-05-10T06:43:21;100366.47;;;11.94;100.00
48790;BME280;41718;51.980;5.734;2023-05-10T06:48:22;100368.22;;;12.00;100.00
48790;BME280;41718;51.980;5.734;2023-05-10T06:53:24;100370.78;;;12.02;100.00
48790;BME280;41718;51.980;5.734;2023-05-10T06:58:25;100376.84;;;11.99;100.00
48790;BME280;41718;51.980;5.734;2023-05-10T07:03:27;100378.56;;;12.02;100.00
48790;BME280;41718;51.980;5.734;2023-05-10T07:08:30;100391.50;;;11.91;100.00
48790;BME280;41718;51.980;5.734;2023-05-10T07:13:31;100392.41;;;12.04;100.00
48790;BME280;41718;51.980;5.734;2023-05-10T07:18:33;100391.56;;;12.03;100.00
48790;BME280;41718;51.980;5.734;2023-05-10T07:23:35;100404.53;;;12.11;100.00
48790;BME280;41718;51.980;5.734;2023-05-10T07:28:36;100406.22;;;12.00;100.00
48790;BME280;41718;51.980;5.734;2023-05-10T07:33:39;100414.88;;;12.06;100.00
48790;BME280;41718;51.980;5.734;2023-05-10T07:38:41;100414.88;;;12.05;100.00
48790;BME280;41718;51.980;5.734;2023-05-10T07:43:42;100420.97;;;12.28;100.00
48790;BME280;41718;51.980;5.734;2023-05-10T07:48:44;100423.59;;;12.37;100.00
48790;BME280;41718;51.980;5.734;2023-05-10T07:53:45;100434.81;;;12.67;100.00
48790;BME280;41718;51.980;5.734;2023-05-10T07:58:47;100435.66;;;12.81;100.00
48790;BME280;41718;51.980;5.734;2023-05-10T08:03:48;100440.84;;;12.99;100.00
48790;BME280;41718;51.980;5.734;2023-05-10T08:08:50;100458.16;;;12.70;100.00
48790;BME280;41718;51.980;5.734;2023-05-10T08:13:52;100469.44;;;12.61;100.00
48790;BME280;41718;51.980;5.734;2023-05-10T08:18:54;100482.38;;;12.41;100.00
48790;BME280;41718;51.980;5.734;2023-05-10T08:23:56;100491.06;;;12.48;100.00
48790;BME280;41718;51.980;5.734;2023-05-10T08:28:58;100506.59;;;12.50;100.00
48790;BME280;41718;51.980;5.734;2023-05-10T08:34:00;100515.25;;;12.45;100.00
48790;BME280;41718;51.980;5.734;2023-05-10T08:39:01;100520.44;;;12.56;100.00
48790;BME280;41718;51.980;5.734;2023-05-10T08:44:04;100531.72;;;12.67;100.00
48790;BME280;41718;51.980;5.734;2023-05-10T08:49:07;100542.97;;;12.95;100.00
48790;BME280;41718;51.980;5.734;2023-05-10T08:54:11;100560.28;;;12.96;100.00
48790;BME280;41718;51.980;5.734;2023-05-10T08:59:13;100565.50;;;13.01;100.00
48790;BME280;41718;51.980;5.734;2023-05-10T09:04:15;100568.97;;;13.44;100.00
48790;BME280;41718;51.980;5.734;2023-05-10T09:09:17;100591.47;;;13.58;100.00
48790;BME280;41718;51.980;5.734;2023-05-10T09:14:19;100600.13;;;13.63;100.00
48790;BME280;41718;51.980;5.734;2023-05-10T09:19:21;100620.94;;;13.57;100.00
48790;BME280;41718;51.980;5.734;2023-05-10T09:24:26;100636.50;;;13.43;100.00
48790;BME280;41718;51.980;5.734;2023-05-10T09:29:42;100659.03;;;13.59;100.00
48790;BME280;41718;51.980;5.734;2023-05-10T09:34:44;100691.97;;;13.39;100.00
48790;BME280;41718;51.980;5.734;2023-05-10T09:39:46;100711.03;;;13.33;100.00
48790;BME280;41718;51.980;5.734;2023-05-10T09:44:47;100719.69;;;13.60;100.00
48790;BME280;41718;51.980;5.734;2023-05-10T09:49:50;100734.44;;;13.68;100.00
48790;BME280;41718;51.980;5.734;2023-05-10T09:54:53;100750.88;;;13.72;100.00
48790;BME280;41718;51.980;5.734;2023-05-10T09:59:55;100769.97;;;13.85;100.00
48790;BME280;41718;51.980;5.734;2023-05-10T10:05:01;100773.44;;;13.97;100.00
48790;BME280;41718;51.980;5.734;2023-05-10T10:10:05;100783.84;;;13.99;100.00
48790;BME280;41718;51.980;5.734;2023-05-10T10:15:08;100795.09;;;13.87;100.00
48790;BME280;41718;51.980;5.734;2023-05-10T10:20:10;100795.97;;;14.00;100.00
48790;BME280;41718;51.980;5.734;2023-05-10T10:25:14;100804.63;;;14.05;100.00
48790;BME280;41718;51.980;5.734;2023-05-10T10:30:32;100818.53;;;13.86;100.00
48790;BME280;41718;51.980;5.734;2023-05-10T10:35:36;100800.31;;;14.13;100.00
48790;BME280;41718;51.980;5.734;2023-05-10T10:40:38;100778.63;;;14.19;100.00
48790;BME280;41718;51.980;5.734;2023-05-10T10:45:40;100740.47;;;14.25;100.00
48790;BME280;41718;51.980;5.734;2023-05-10T10:50:45;100711.78;;;14.51;100.00
48790;BME280;41718;51.980;5.734;2023-05-10T10:55:48;100709.13;;;14.57;100.00
48790;BME280;41718;51.980;5.734;2023-05-10T11:00:50;100702.28;;;14.30;100.00
48790;BME280;41718;51.980;5.734;2023-05-10T11:05:58;100704.84;;;14.49;100.00
48790;BME280;41718;51.980;5.734;2023-05-10T11:21:18;100718.69;;;14.46;100.00
48790;BME280;41718;51.980;5.734;2023-05-10T11:26:20;100722.16;;;14.64;100.00
48790;BME280;41718;51.980;5.734;2023-05-10T11:31:27;100729.97;;;14.61;100.00
48790;BME280;41718;51.980;5.734;2023-05-10T11:36:33;100727.34;;;14.62;100.00
48790;BME280;41718;51.980;5.734;2023-05-10T11:41:35;100731.66;;;14.72;100.00
48790;BME280;41718;51.980;5.734;2023-05-10T11:46:36;100731.56;;;14.98;100.00
48790;BME280;41718;51.980;5.734;2023-05-10T11:51:38;100733.25;;;15.04;100.00
48790;BME280;41718;51.980;5.734;2023-05-10T11:56:44;100728.66;;;15.43;100.00
48790;BME280;41718;51.980;5.734;2023-05-10T12:01:46;100728.78;;;15.27;100.00
48790;BME280;41718;51.980;5.734;2023-05-10T12:06:48;100737.47;;;15.23;100.00
48790;BME280;41718;51.980;5.734;2023-05-10T12:11:55;100735.56;;;15.48;100.00
48790;BME280;41718;51.980;5.734;2023-05-10T12:16:58;100739.00;;;15.53;100.00
48790;BME280;41718;51.980;5.734;2023-05-10T12:21:59;100748.50;;;15.70;100.00
48790;BME280;41718;51.980;5.734;2023-05-10T12:27:04;100747.53;;;15.80;100.00
48790;BME280;41718;51.980;5.734;2023-05-10T12:32:45;100743.25;;;15.71;100.00
48790;BME280;41718;51.980;5.734;2023-05-10T12:37:47;100741.31;;;15.96;100.00
48790;BME280;41718;51.980;5.734;2023-05-10T12:42:51;100751.69;;;16.04;100.00
48790;BME280;41718;51.980;5.734;2023-05-10T12:47:53;100759.38;;;16.16;100.00
48790;BME280;41718;51.980;5.734;2023-05-10T12:52:54;100753.06;;;16.38;100.00
48790;BME280;41718;51.980;5.734;2023-05-10T12:57:56;100761.06;;;16.22;100.00
48790;BME280;41718;51.980;5.734;2023-05-10T13:02:57;100764.44;;;16.34;100.00
48790;BME280;41718;51.980;5.734;2023-05-10T13:07:59;100763.19;;;16.67;100.00
48790;BME280;41718;51.980;5.734;2023-05-10T13:13:00;100777.50;;;16.34;100.00
48790;BME280;41718;51.980;5.734;2023-05-10T13:18:02;100787.09;;;16.32;100.00
48790;BME280;41718;51.980;5.734;2023-05-10T13:23:03;100799.91;;;15.49;100.00
48790;BME280;41718;51.980;5.734;2023-05-10T13:28:05;100817.44;;;15.14;100.00
48790;BME280;41718;51.980;5.734;2023-05-10T13:33:07;100833.19;;;14.89;100.00
48790;BME280;41718;51.980;5.734;2023-05-10T13:38:08;100835.78;;;14.84;100.00
48790;BME280;41718;51.980;5.734;2023-05-10T13:43:10;100839.34;;;14.53;100.00
48790;BME280;41718;51.980;5.734;2023-05-10T13:48:12;100845.41;;;14.70;100.00
48790;BME280;41718;51.980;5.734;2023-05-10T13:53:13;100846.25;;;14.46;100.00
48790;BME280;41718;51.980;5.734;2023-05-10T13:58:15;100854.09;;;14.31;100.00
48790;BME280;41718;51.980;5.734;2023-05-10T14:03:17;100853.22;;;14.01;100.00
48790;BME280;41718;51.980;5.734;2023-05-10T14:08:18;100848.03;;;14.01;100.00
48790;BME280;41718;51.980;5.734;2023-05-10T14:13:20;100841.00;;;13.56;100.00
48790;BME280;41718;51.980;5.734;2023-05-10T14:18:21;100841.03;;;13.70;100.00
48790;BME280;41718;51.980;5.734;2023-05-10T14:23:23;100841.84;;;13.47;100.00
48790;BME280;41718;51.980;5.734;2023-05-10T14:28:29;100847.00;;;13.28;100.00
48790;BME280;41718;51.980;5.734;2023-05-10T14:33:31;100848.78;;;13.53;100.00
48790;BME280;41718;51.980;5.734;2023-05-10T14:38:33;100853.97;;;13.45;100.00
48790;BME280;41718;51.980;5.734;2023-05-10T14:43:35;100841.88;;;13.63;100.00
48790;BME280;41718;51.980;5.734;2023-05-10T14:48:37;100843.56;;;13.45;100.00
48790;BME280;41718;51.980;5.734;2023-05-10T14:53:38;100839.22;;;13.41;100.00
48790;BME280;41718;51.980;5.734;2023-05-10T14:58:40;100839.31;;;13.67;100.00
48790;BME280;41718;51.980;5.734;2023-05-10T15:03:41;100841.91;;;13.69;100.00
48790;BME280;41718;51.980;5.734;2023-05-10T15:08:43;100841.06;;;13.85;100.00
48790;BME280;41718;51.980;5.734;2023-05-10T15:13:44;100837.59;;;14.23;100.00
48790;BME280;41718;51.980;5.734;2023-05-10T15:18:46;100840.19;;;14.27;100.00
48790;BME280;41718;51.980;5.734;2023-05-10T15:23:47;100846.28;;;14.51;100.00
48790;BME280;41718;51.980;5.734;2023-05-10T15:28:49;100855.81;;;14.15;100.00
48790;BME280;41718;51.980;5.734;2023-05-10T15:33:50;100847.97;;;14.46;100.00
48790;BME280;41718;51.980;5.734;2023-05-10T15:38:55;100852.31;;;14.79;100.00
48790;BME280;41718;51.980;5.734;2023-05-10T15:43:57;100860.19;;;14.48;100.00
48790;BME280;41718;51.980;5.734;2023-05-10T15:49:00;100848.84;;;14.77;100.00
48790;BME280;41718;51.980;5.734;2023-05-10T15:54:02;100842.72;;;14.85;100.00
48790;BME280;41718;51.980;5.734;2023-05-10T15:59:08;100848.00;;;14.70;100.00
48790;BME280;41718;51.980;5.734;2023-05-10T16:04:11;100834.94;;;14.87;100.00
48790;BME280;41718;51.980;5.734;2023-05-10T16:09:15;100830.53;;;15.01;100.00
48790;BME280;41718;51.980;5.734;2023-05-10T16:14:17;100838.44;;;14.66;100.00
48790;BME280;41718;51.980;5.734;2023-05-10T16:19:20;100831.34;;;15.20;100.00
48790;BME280;41718;51.980;5.734;2023-05-10T16:24:22;100830.41;;;15.26;100.00
48790;BME280;41718;51.980;5.734;2023-05-10T16:29:24;100842.72;;;14.99;100.00
48790;BME280;41718;51.980;5.734;2023-05-10T16:34:26;100840.94;;;15.03;100.00
48790;BME280;41718;51.980;5.734;2023-05-10T16:39:28;100852.28;;;14.93;100.00
48790;BME280;41718;51.980;5.734;2023-05-10T16:44:29;100854.00;;;15.00;100.00
48790;BME280;41718;51.980;5.734;2023-05-10T16:49:31;100853.81;;;15.44;100.00
48790;BME280;41718;51.980;5.734;2023-05-10T16:54:32;100859.91;;;15.42;100.00
48790;BME280;41718;51.980;5.734;2023-05-10T16:59:33;100862.44;;;15.57;100.00
48790;BME280;41718;51.980;5.734;2023-05-10T17:04:35;100864.13;;;15.73;100.00
48790;BME280;41718;51.980;5.734;2023-05-10T17:09:36;100869.41;;;15.56;100.00
48790;BME280;41718;51.980;5.734;2023-05-10T17:14:38;100868.50;;;15.68;100.00
48790;BME280;41718;51.980;5.734;2023-05-10T17:19:40;100883.38;;;15.37;100.00
48790;BME280;41718;51.980;5.734;2023-05-10T17:24:45;100894.69;;;15.31;100.00
48790;BME280;41718;51.980;5.734;2023-05-10T17:29:46;100904.28;;;15.26;100.00
48790;BME280;41718;51.980;5.734;2023-05-10T17:34:48;100905.22;;;15.10;100.00
48790;BME280;41718;51.980;5.734;2023-05-10T17:39:49;100909.53;;;15.17;100.00
48790;BME280;41718;51.980;5.734;2023-05-10T17:44:51;100918.25;;;15.05;100.00
48790;BME280;41718;51.980;5.734;2023-05-10T17:49:53;100919.97;;;15.09;100.00
48790;BME280;41718;51.980;5.734;2023-05-10T17:54:54;100924.28;;;15.21;100.00
48790;BME280;41718;51.980;5.734;2023-05-10T17:59:56;100935.66;;;14.85;100.00
48790;BME280;41718;51.980;5.734;2023-05-10T18:04:58;100936.53;;;14.81;100.00
48790;BME280;41718;51.980;5.734;2023-05-10T18:10:01;100933.94;;;14.87;100.00
48790;BME280;41718;51.980;5.734;2023-05-10T18:15:03;100936.53;;;14.76;100.00
48790;BME280;41718;51.980;5.734;2023-05-10T18:20:05;100945.22;;;14.62;100.00
48790;BME280;41718;51.980;5.734;2023-05-10T18:25:07;100939.13;;;14.56;100.00
48790;BME280;41718;51.980;5.734;2023-05-10T18:30:09;100940.88;;;14.61;100.00
48790;BME280;41718;51.980;5.734;2023-05-10T18:35:12;100939.13;;;14.50;100.00
48790;BME280;41718;51.980;5.734;2023-05-10T18:40:15;100943.44;;;14.42;100.00
48790;BME280;41718;51.980;5.734;2023-05-10T18:45:18;100939.09;;;14.20;100.00
48790;BME280;41718;51.980;5.734;2023-05-10T18:50:20;100938.22;;;14.25;100.00
48790;BME280;41718;51.980;5.734;2023-05-10T18:55:23;100934.75;;;14.25;100.00
48790;BME280;41718;51.980;5.734;2023-05-10T19:00:26;100934.75;;;14.23;100.00
48790;BME280;41718;51.980;5.734;2023-05-10T19:05:27;100949.50;;;14.20;100.00
48790;BME280;41718;51.980;5.734;2023-05-10T19:10:36;100950.34;;;14.16;100.00
48790;BME280;41718;51.980;5.734;2023-05-10T19:15:44;100954.66;;;13.98;100.00
48790;BME280;41718;51.980;5.734;2023-05-10T19:21:04;100971.94;;;13.79;100.00
48790;BME280;41718;51.980;5.734;2023-05-10T19:26:14;100982.31;;;13.75;100.00
48790;BME280;41718;51.980;5.734;2023-05-10T19:31:16;100967.53;;;13.65;100.00
48790;BME280;41718;51.980;5.734;2023-05-10T19:36:18;100957.97;;;13.58;100.00
48790;BME280;41718;51.980;5.734;2023-05-10T19:41:29;100947.59;;;13.58;100.00
48790;BME280;41718;51.980;5.734;2023-05-10T19:46:34;100932.81;;;13.44;100.00
48790;BME280;41718;51.980;5.734;2023-05-10T19:51:36;100935.41;;;13.49;100.00
48790;BME280;41718;51.980;5.734;2023-05-10T19:56:37;100923.16;;;13.25;100.00
48790;BME280;41718;51.980;5.734;2023-05-10T20:01:39;100927.47;;;13.21;100.00
48790;BME280;41718;51.980;5.734;2023-05-10T20:06:42;100939.63;;;13.24;100.00
48790;BME280;41718;51.980;5.734;2023-05-10T20:11:45;100938.75;;;13.26;100.00
48790;BME280;41718;51.980;5.734;2023-05-10T20:16:46;100943.97;;;13.25;100.00
48790;BME280;41718;51.980;5.734;2023-05-10T20:21:48;100946.56;;;13.25;100.00
48790;BME280;41718;51.980;5.734;2023-05-10T20:26:50;100946.59;;;13.28;100.00
48790;BME280;41718;51.980;5.734;2023-05-10T20:31:52;100942.16;;;13.18;100.00
48790;BME280;41718;51.980;5.734;2023-05-10T20:36:57;100944.75;;;13.19;100.00
48790;BME280;41718;51.980;5.734;2023-05-10T20:41:59;100955.13;;;13.12;100.00
48790;BME280;41718;51.980;5.734;2023-05-10T20:47:01;100966.25;;;12.97;100.00
48790;BME280;41718;51.980;5.734;2023-05-10T20:52:03;100966.13;;;12.80;100.00
48790;BME280;41718;51.980;5.734;2023-05-10T20:57:06;100969.56;;;12.76;100.00
48790;BME280;41718;51.980;5.734;2023-05-10T21:02:11;100969.63;;;12.87;100.00
48790;BME280;41718;51.980;5.734;2023-05-10T21:07:13;100966.00;;;12.63;100.00
48790;BME280;41718;51.980;5.734;2023-05-10T21:12:17;100964.25;;;12.61;100.00
48790;BME280;41718;51.980;5.734;2023-05-10T21:17:20;100964.25;;;12.62;100.00
48790;BME280;41718;51.980;5.734;2023-05-10T21:22:21;100957.31;;;12.58;100.00
48790;BME280;41718;51.980;5.734;2023-05-10T21:27:26;100962.56;;;12.66;100.00
48790;BME280;41718;51.980;5.734;2023-05-10T21:32:28;100971.13;;;12.54;100.00
48790;BME280;41718;51.980;5.734;2023-05-10T21:37:32;100972.88;;;12.54;100.00
48790;BME280;41718;51.980;5.734;2023-05-10T21:42:40;100982.28;;;12.47;100.00
48790;BME280;41718;51.980;5.734;2023-05-10T21:47:42;100983.97;;;12.40;100.00
48790;BME280;41718;51.980;5.734;2023-05-10T21:52:48;100989.09;;;12.33;100.00
48790;BME280;41718;51.980;5.734;2023-05-10T21:57:50;100989.09;;;12.31;100.00
48790;BME280;41718;51.980;5.734;2023-05-10T22:02:52;100988.16;;;12.28;100.00
48790;BME280;41718;51.980;5.734;2023-05-10T22:08:04;100984.72;;;12.30;100.00
48790;BME280;41718;51.980;5.734;2023-05-10T22:13:06;100987.28;;;12.26;100.00
48790;BME280;41718;51.980;5.734;2023-05-10T22:18:17;100988.00;;;12.11;100.00
48790;BME280;41718;51.980;5.734;2023-05-10T22:23:20;100980.97;;;12.02;100.00
48790;BME280;41718;51.980;5.734;2023-05-10T22:28:23;100981.16;;;12.17;100.00
48790;BME280;41718;51.980;5.734;2023-05-10T22:33:29;100982.00;;;12.15;100.00
48790;BME280;41718;51.980;5.734;2023-05-10T22:38:33;100988.94;;;12.19;100.00
48790;BME280;41718;51.980;5.734;2023-05-10T22:43:35;100991.56;;;12.20;100.00
48790;BME280;41718;51.980;5.734;2023-05-10T22:48:37;100988.03;;;12.14;100.00
48790;BME280;41718;51.980;5.734;2023-05-10T22:53:38;100994.97;;;12.18;100.00
48790;BME280;41718;51.980;5.734;2023-05-10T22:58:40;100989.84;;;12.21;100.00
48790;BME280;41718;51.980;5.734;2023-05-10T23:03:42;101001.81;;;12.10;100.00
48790;BME280;41718;51.980;5.734;2023-05-10T23:08:43;100997.50;;;12.10;100.00
48790;BME280;41718;51.980;5.734;2023-05-10T23:13:48;100996.63;;;12.11;100.00
48790;BME280;41718;51.980;5.734;2023-05-10T23:18:51;100993.19;;;12.12;100.00
48790;BME280;41718;51.980;5.734;2023-05-10T23:23:52;101000.91;;;12.08;100.00
48790;BME280;41718;51.980;5.734;2023-05-10T23:28:55;101008.59;;;11.99;100.00
48790;BME280;41718;51.980;5.734;2023-05-10T23:33:56;101005.09;;;11.93;100.00
48790;BME280;41718;51.980;5.734;2023-05-10T23:39:00;101003.41;;;11.99;100.00
48790;BME280;41718;51.980;5.734;2023-05-10T23:44:03;100993.94;;;12.02;100.00
48790;BME280;41718;51.980;5.734;2023-05-10T23:49:04;100994.84;;;12.06;100.00
48790;BME280;41718;51.980;5.734;2023-05-10T23:54:07;100992.19;;;11.98;100.00
48790;BME280;41718;51.980;5.734;2023-05-10T23:59:09;100992.25;;;12.07;100.00
